Bremerton National Airport
KPWT : now visible

Airfield :











YOU CAN JOIN US ON...

 
LOGIN :

Register | Disclaimer

   EN    FR    IT 

 









Legend :    VFR   Marginal VFR   IFR   Intensive IFR   Very Intensive IFR
Visi :
Ceiling :
>= 8 km
>= 3000ft
5 to 8 km
1000 to 3000 ft
1500m to 5 km
500 to 1000 ft
800 to 1500m
200 to 500 ft
< 800m
< 200 ft
Symbols :   Thunderstorms  Fog  Heavy snow  Heavy precipitations  Wind > 20 kt






- Airport Elevation : 444 ft
- IATA code : PWT


KPWT - Bremerton National

CURRENT METAR :
  • 110656Z AUTO 21008KT 10SM OVC003 07/06 A3008 RMK AO2 SLP205 T00670061 PNO $

EXPIRED METARs :
  • 110556Z AUTO 21006KT 10SM OVC003 07/06 A3008 RMK AO2 SLP202 6//// T00670061 10067 20056 55000 PNO $
  • 110456Z AUTO 21007KT 10SM OVC003 07/06 A3007 RMK AO2 SLP200 T00670061 PNO $

TAF KPWT
Valid from the 11 at 06:00 until the 12 at 06:00 UTC


110530Z 1106/1206 18006KT 5SM BR OVC003
FM110800 16006KT P6SM OVC005
FM111500 16006KT P6SM BKN015 BKN050 OVC120
FM111800 16012KT P6SM SCT020 OVC050
FM112200 18014KT 5SM -RA BR OVC020



MET'MAP, your aeronautical weather chart ! - Copyright ORBIFLY December 2007 - Disclaimer

ORBIFLY MET'MAP TEAM :

Programming & Development : Alexandra Zaïnal
Concept & original design : Baudouin d'Aumeries
Assistance for programming : Marc-Olivier Méhu
Technical & hardware support : Manuel Goepfert

Contact : metmap@orbifly.com




SOURCES & CREDITS :

   NOAA       Earth
Advisory